sensor_id;sensor_type;location;lat;lon;timestamp;P1;durP1;ratioP1;P2;durP2;ratioP2
73869;SDS011;64924;42.140;24.762;2023-01-10T00:01:59;135.75;;;53.88;;
73869;SDS011;64924;42.140;24.762;2023-01-10T00:04:24;128.98;;;53.20;;
73869;SDS011;64924;42.140;24.762;2023-01-10T00:06:50;141.73;;;52.10;;
73869;SDS011;64924;42.140;24.762;2023-01-10T00:09:16;137.70;;;54.53;;
73869;SDS011;64924;42.140;24.762;2023-01-10T00:11:42;127.97;;;52.60;;
73869;SDS011;64924;42.140;24.762;2023-01-10T00:14:26;137.65;;;54.78;;
73869;SDS011;64924;42.140;24.762;2023-01-10T00:16:53;119.35;;;50.55;;
73869;SDS011;64924;42.140;24.762;2023-01-10T00:19:19;110.30;;;50.20;;
73869;SDS011;64924;42.140;24.762;2023-01-10T00:21:44;116.47;;;51.25;;
73869;SDS011;64924;42.140;24.762;2023-01-10T00:24:10;114.68;;;48.85;;
73869;SDS011;64924;42.140;24.762;2023-01-10T00:26:47;120.20;;;52.00;;
73869;SDS011;64924;42.140;24.762;2023-01-10T00:29:17;119.68;;;51.72;;
73869;SDS011;64924;42.140;24.762;2023-01-10T00:31:43;117.07;;;50.35;;
73869;SDS011;64924;42.140;24.762;2023-01-10T00:34:09;124.45;;;53.80;;
73869;SDS011;64924;42.140;24.762;2023-01-10T00:36:34;118.13;;;53.40;;
73869;SDS011;64924;42.140;24.762;2023-01-10T00:39:00;116.47;;;51.28;;
73869;SDS011;64924;42.140;24.762;2023-01-10T00:41:25;126.07;;;51.13;;
73869;SDS011;64924;42.140;24.762;2023-01-10T00:44:09;127.50;;;52.97;;
73869;SDS011;64924;42.140;24.762;2023-01-10T00:46:34;120.13;;;50.97;;
73869;SDS011;64924;42.140;24.762;2023-01-10T00:49:00;127.15;;;52.58;;
73869;SDS011;64924;42.140;24.762;2023-01-10T00:51:27;132.95;;;54.13;;
73869;SDS011;64924;42.140;24.762;2023-01-10T00:53:52;123.43;;;51.80;;
73869;SDS011;64924;42.140;24.762;2023-01-10T00:56:18;118.75;;;52.83;;
73869;SDS011;64924;42.140;24.762;2023-01-10T00:58:43;125.68;;;52.88;;
73869;SDS011;64924;42.140;24.762;2023-01-10T01:01:09;118.28;;;52.00;;
73869;SDS011;64924;42.140;24.762;2023-01-10T01:03:35;133.98;;;52.13;;
73869;SDS011;64924;42.140;24.762;2023-01-10T01:06:04;125.53;;;52.17;;
73869;SDS011;64924;42.140;24.762;2023-01-10T01:08:30;119.97;;;51.03;;
73869;SDS011;64924;42.140;24.762;2023-01-10T01:10:55;128.50;;;49.92;;
73869;SDS011;64924;42.140;24.762;2023-01-10T01:13:21;117.00;;;50.65;;
73869;SDS011;64924;42.140;24.762;2023-01-10T01:15:47;120.28;;;49.97;;
73869;SDS011;64924;42.140;24.762;2023-01-10T01:18:14;121.85;;;49.85;;
73869;SDS011;64924;42.140;24.762;2023-01-10T01:20:41;112.38;;;48.63;;
73869;SDS011;64924;42.140;24.762;2023-01-10T01:23:09;109.38;;;48.95;;
73869;SDS011;64924;42.140;24.762;2023-01-10T01:25:35;112.65;;;49.20;;
73869;SDS011;64924;42.140;24.762;2023-01-10T01:28:01;120.97;;;50.80;;
73869;SDS011;64924;42.140;24.762;2023-01-10T01:30:27;113.32;;;48.10;;
73869;SDS011;64924;42.140;24.762;2023-01-10T01:32:52;114.90;;;49.28;;
73869;SDS011;64924;42.140;24.762;2023-01-10T01:35:18;119.22;;;49.35;;
73869;SDS011;64924;42.140;24.762;2023-01-10T01:37:43;117.50;;;48.47;;
73869;SDS011;64924;42.140;24.762;2023-01-10T01:40:15;124.97;;;48.78;;
73869;SDS011;64924;42.140;24.762;2023-01-10T01:42:42;113.95;;;45.90;;
73869;SDS011;64924;42.140;24.762;2023-01-10T01:47:35;124.43;;;49.60;;
73869;SDS011;64924;42.140;24.762;2023-01-10T01:53:07;109.85;;;46.17;;
73869;SDS011;64924;42.140;24.762;2023-01-10T01:55:37;117.75;;;45.60;;
73869;SDS011;64924;42.140;24.762;2023-01-10T01:58:05;118.47;;;44.97;;
73869;SDS011;64924;42.140;24.762;2023-01-10T02:00:36;109.65;;;45.38;;
73869;SDS011;64924;42.140;24.762;2023-01-10T02:03:02;117.55;;;46.83;;
73869;SDS011;64924;42.140;24.762;2023-01-10T02:05:29;117.65;;;47.08;;
73869;SDS011;64924;42.140;24.762;2023-01-10T02:07:58;119.90;;;45.00;;
73869;SDS011;64924;42.140;24.762;2023-01-10T02:13:13;108.20;;;46.45;;
73869;SDS011;64924;42.140;24.762;2023-01-10T02:15:39;119.68;;;48.88;;
73869;SDS011;64924;42.140;24.762;2023-01-10T02:18:05;117.03;;;47.83;;
73869;SDS011;64924;42.140;24.762;2023-01-10T02:34:23;123.43;;;54.63;;
73869;SDS011;64924;42.140;24.762;2023-01-10T02:42:59;121.97;;;55.05;;
73869;SDS011;64924;42.140;24.762;2023-01-10T02:45:16;125.47;;;52.80;;
73869;SDS011;64924;42.140;24.762;2023-01-10T02:47:45;122.00;;;54.78;;
73869;SDS011;64924;42.140;24.762;2023-01-10T02:53:02;125.40;;;56.83;;
73869;SDS011;64924;42.140;24.762;2023-01-10T02:58:19;125.78;;;53.67;;
73869;SDS011;64924;42.140;24.762;2023-01-10T03:01:35;128.43;;;56.00;;
73869;SDS011;64924;42.140;24.762;2023-01-10T03:15:08;137.02;;;56.63;;
73869;SDS011;64924;42.140;24.762;2023-01-10T03:17:37;134.98;;;55.45;;
73869;SDS011;64924;42.140;24.762;2023-01-10T03:20:04;135.38;;;56.28;;
73869;SDS011;64924;42.140;24.762;2023-01-10T03:22:32;146.50;;;57.78;;
73869;SDS011;64924;42.140;24.762;2023-01-10T03:27:31;146.15;;;54.08;;
73869;SDS011;64924;42.140;24.762;2023-01-10T03:32:51;137.52;;;55.25;;
73869;SDS011;64924;42.140;24.762;2023-01-10T03:35:19;158.68;;;60.85;;
73869;SDS011;64924;42.140;24.762;2023-01-10T03:37:54;149.75;;;58.45;;
73869;SDS011;64924;42.140;24.762;2023-01-10T03:45:58;161.52;;;59.95;;
73869;SDS011;64924;42.140;24.762;2023-01-10T03:48:28;159.63;;;59.05;;
73869;SDS011;64924;42.140;24.762;2023-01-10T03:51:01;146.65;;;59.13;;
73869;SDS011;64924;42.140;24.762;2023-01-10T03:53:30;146.50;;;56.40;;
73869;SDS011;64924;42.140;24.762;2023-01-10T03:55:56;159.93;;;58.88;;
73869;SDS011;64924;42.140;24.762;2023-01-10T03:58:22;151.13;;;58.58;;
73869;SDS011;64924;42.140;24.762;2023-01-10T04:00:48;167.60;;;63.50;;
73869;SDS011;64924;42.140;24.762;2023-01-10T04:03:13;159.25;;;60.10;;
73869;SDS011;64924;42.140;24.762;2023-01-10T04:05:40;145.68;;;59.35;;
73869;SDS011;64924;42.140;24.762;2023-01-10T04:08:06;150.10;;;57.17;;
73869;SDS011;64924;42.140;24.762;2023-01-10T04:10:32;145.07;;;55.45;;
73869;SDS011;64924;42.140;24.762;2023-01-10T04:12:58;151.40;;;56.40;;
73869;SDS011;64924;42.140;24.762;2023-01-10T04:15:26;148.05;;;54.63;;
73869;SDS011;64924;42.140;24.762;2023-01-10T04:17:53;145.18;;;54.30;;
73869;SDS011;64924;42.140;24.762;2023-01-10T04:20:18;151.38;;;55.38;;
73869;SDS011;64924;42.140;24.762;2023-01-10T04:22:44;142.15;;;54.63;;
73869;SDS011;64924;42.140;24.762;2023-01-10T04:25:10;135.88;;;53.10;;
73869;SDS011;64924;42.140;24.762;2023-01-10T04:27:35;138.13;;;53.90;;
73869;SDS011;64924;42.140;24.762;2023-01-10T04:30:01;140.05;;;53.47;;
73869;SDS011;64924;42.140;24.762;2023-01-10T04:32:27;129.82;;;53.97;;
73869;SDS011;64924;42.140;24.762;2023-01-10T04:34:52;126.60;;;54.33;;
73869;SDS011;64924;42.140;24.762;2023-01-10T04:37:18;129.23;;;52.15;;
73869;SDS011;64924;42.140;24.762;2023-01-10T04:39:44;131.30;;;52.72;;
73869;SDS011;64924;42.140;24.762;2023-01-10T04:42:09;120.60;;;52.70;;
73869;SDS011;64924;42.140;24.762;2023-01-10T04:44:35;126.13;;;51.10;;
73869;SDS011;64924;42.140;24.762;2023-01-10T04:47:01;120.63;;;49.95;;
73869;SDS011;64924;42.140;24.762;2023-01-10T04:49:26;117.78;;;48.55;;
73869;SDS011;64924;42.140;24.762;2023-01-10T04:51:52;111.85;;;48.65;;
73869;SDS011;64924;42.140;24.762;2023-01-10T04:54:20;127.47;;;50.03;;
73869;SDS011;64924;42.140;24.762;2023-01-10T04:56:46;124.65;;;51.85;;
73869;SDS011;64924;42.140;24.762;2023-01-10T04:59:11;123.13;;;51.83;;
73869;SDS011;64924;42.140;24.762;2023-01-10T05:01:37;129.05;;;55.72;;
73869;SDS011;64924;42.140;24.762;2023-01-10T05:04:03;126.28;;;53.75;;
73869;SDS011;64924;42.140;24.762;2023-01-10T05:06:29;163.02;;;64.85;;
73869;SDS011;64924;42.140;24.762;2023-01-10T05:08:55;160.73;;;66.93;;
73869;SDS011;64924;42.140;24.762;2023-01-10T05:11:21;159.45;;;62.08;;
73869;SDS011;64924;42.140;24.762;2023-01-10T05:13:47;171.45;;;65.85;;
73869;SDS011;64924;42.140;24.762;2023-01-10T05:16:12;154.23;;;62.25;;
73869;SDS011;64924;42.140;24.762;2023-01-10T05:18:38;148.90;;;59.65;;
73869;SDS011;64924;42.140;24.762;2023-01-10T05:21:04;153.95;;;60.22;;
73869;SDS011;64924;42.140;24.762;2023-01-10T05:23:31;160.75;;;62.20;;
73869;SDS011;64924;42.140;24.762;2023-01-10T05:26:03;155.05;;;65.28;;
73869;SDS011;64924;42.140;24.762;2023-01-10T05:28:30;164.27;;;68.10;;
73869;SDS011;64924;42.140;24.762;2023-01-10T05:30:56;163.48;;;71.32;;
73869;SDS011;64924;42.140;24.762;2023-01-10T05:33:21;158.77;;;69.30;;
73869;SDS011;64924;42.140;24.762;2023-01-10T05:35:47;167.93;;;66.82;;
73869;SDS011;64924;42.140;24.762;2023-01-10T05:38:12;162.23;;;67.43;;
73869;SDS011;64924;42.140;24.762;2023-01-10T05:40:38;161.10;;;65.38;;
73869;SDS011;64924;42.140;24.762;2023-01-10T05:43:03;175.93;;;67.60;;
73869;SDS011;64924;42.140;24.762;2023-01-10T05:45:29;162.70;;;64.53;;
73869;SDS011;64924;42.140;24.762;2023-01-10T05:47:54;166.75;;;65.50;;
73869;SDS011;64924;42.140;24.762;2023-01-10T05:50:20;172.93;;;65.35;;
73869;SDS011;64924;42.140;24.762;2023-01-10T05:52:45;168.02;;;65.20;;
73869;SDS011;64924;42.140;24.762;2023-01-10T05:55:11;171.20;;;63.75;;
73869;SDS011;64924;42.140;24.762;2023-01-10T05:57:36;172.40;;;64.38;;
73869;SDS011;64924;42.140;24.762;2023-01-10T06:00:03;178.98;;;66.63;;
73869;SDS011;64924;42.140;24.762;2023-01-10T06:02:30;176.05;;;66.18;;
73869;SDS011;64924;42.140;24.762;2023-01-10T06:04:56;177.60;;;66.70;;
73869;SDS011;64924;42.140;24.762;2023-01-10T06:07:21;191.30;;;69.93;;
73869;SDS011;64924;42.140;24.762;2023-01-10T06:09:47;190.18;;;67.40;;
73869;SDS011;64924;42.140;24.762;2023-01-10T06:12:15;178.65;;;66.15;;
73869;SDS011;64924;42.140;24.762;2023-01-10T06:14:42;169.15;;;64.20;;
73869;SDS011;64924;42.140;24.762;2023-01-10T06:17:08;182.25;;;67.30;;
73869;SDS011;64924;42.140;24.762;2023-01-10T06:19:34;183.93;;;65.40;;
73869;SDS011;64924;42.140;24.762;2023-01-10T06:21:59;162.52;;;62.10;;
73869;SDS011;64924;42.140;24.762;2023-01-10T06:24:25;172.05;;;63.45;;
73869;SDS011;64924;42.140;24.762;2023-01-10T06:26:50;189.13;;;66.57;;
73869;SDS011;64924;42.140;24.762;2023-01-10T06:29:16;170.75;;;64.95;;
73869;SDS011;64924;42.140;24.762;2023-01-10T06:31:41;184.70;;;64.72;;
73869;SDS011;64924;42.140;24.762;2023-01-10T06:34:07;194.40;;;65.10;;
73869;SDS011;64924;42.140;24.762;2023-01-10T06:36:32;187.07;;;65.53;;
73869;SDS011;64924;42.140;24.762;2023-01-10T06:38:58;198.68;;;65.18;;
73869;SDS011;64924;42.140;24.762;2023-01-10T06:41:23;181.15;;;64.40;;
73869;SDS011;64924;42.140;24.762;2023-01-10T06:43:49;181.73;;;65.03;;
73869;SDS011;64924;42.140;24.762;2023-01-10T06:46:15;187.27;;;64.03;;
73869;SDS011;64924;42.140;24.762;2023-01-10T06:48:43;178.90;;;63.20;;
73869;SDS011;64924;42.140;24.762;2023-01-10T06:51:09;184.68;;;64.22;;
73869;SDS011;64924;42.140;24.762;2023-01-10T06:53:35;193.95;;;67.30;;
73869;SDS011;64924;42.140;24.762;2023-01-10T06:56:01;184.38;;;63.58;;
73869;SDS011;64924;42.140;24.762;2023-01-10T06:58:26;188.80;;;65.60;;
73869;SDS011;64924;42.140;24.762;2023-01-10T07:00:52;190.70;;;64.32;;
73869;SDS011;64924;42.140;24.762;2023-01-10T07:03:18;199.23;;;66.60;;
73869;SDS011;64924;42.140;24.762;2023-01-10T07:05:43;203.00;;;70.22;;
73869;SDS011;64924;42.140;24.762;2023-01-10T07:08:09;187.05;;;68.72;;
73869;SDS011;64924;42.140;24.762;2023-01-10T07:10:34;197.27;;;70.22;;
73869;SDS011;64924;42.140;24.762;2023-01-10T07:13:00;211.60;;;71.78;;
73869;SDS011;64924;42.140;24.762;2023-01-10T07:15:26;190.98;;;68.22;;
73869;SDS011;64924;42.140;24.762;2023-01-10T07:17:52;186.10;;;66.43;;
73869;SDS011;64924;42.140;24.762;2023-01-10T07:20:17;192.50;;;68.32;;
73869;SDS011;64924;42.140;24.762;2023-01-10T07:22:43;198.07;;;70.30;;
73869;SDS011;64924;42.140;24.762;2023-01-10T07:25:09;187.27;;;64.75;;
73869;SDS011;64924;42.140;24.762;2023-01-10T07:27:34;187.07;;;66.55;;
73869;SDS011;64924;42.140;24.762;2023-01-10T07:30:00;194.82;;;65.32;;
73869;SDS011;64924;42.140;24.762;2023-01-10T07:32:25;193.93;;;66.63;;
73869;SDS011;64924;42.140;24.762;2023-01-10T07:34:51;200.52;;;66.72;;
73869;SDS011;64924;42.140;24.762;2023-01-10T07:37:16;205.40;;;69.45;;
73869;SDS011;64924;42.140;24.762;2023-01-10T07:39:42;188.50;;;63.97;;
73869;SDS011;64924;42.140;24.762;2023-01-10T07:42:10;198.70;;;65.93;;
73869;SDS011;64924;42.140;24.762;2023-01-10T07:44:36;196.65;;;64.22;;
73869;SDS011;64924;42.140;24.762;2023-01-10T07:47:02;191.65;;;63.38;;
73869;SDS011;64924;42.140;24.762;2023-01-10T07:49:27;173.50;;;61.15;;
73869;SDS011;64924;42.140;24.762;2023-01-10T07:51:53;212.48;;;64.38;;
73869;SDS011;64924;42.140;24.762;2023-01-10T07:54:18;178.32;;;61.88;;
73869;SDS011;64924;42.140;24.762;2023-01-10T07:56:44;186.85;;;62.80;;
73869;SDS011;64924;42.140;24.762;2023-01-10T07:59:11;188.73;;;64.35;;
73869;SDS011;64924;42.140;24.762;2023-01-10T08:01:37;181.57;;;62.85;;
73869;SDS011;64924;42.140;24.762;2023-01-10T08:04:03;168.70;;;60.08;;
73869;SDS011;64924;42.140;24.762;2023-01-10T08:06:29;184.07;;;61.50;;
73869;SDS011;64924;42.140;24.762;2023-01-10T08:08:55;172.38;;;59.70;;
73869;SDS011;64924;42.140;24.762;2023-01-10T08:11:20;187.85;;;61.30;;
73869;SDS011;64924;42.140;24.762;2023-01-10T08:13:46;174.30;;;60.20;;
73869;SDS011;64924;42.140;24.762;2023-01-10T08:16:11;163.77;;;59.05;;
73869;SDS011;64924;42.140;24.762;2023-01-10T08:18:39;172.38;;;61.97;;
73869;SDS011;64924;42.140;24.762;2023-01-10T08:21:07;186.27;;;65.28;;
73869;SDS011;64924;42.140;24.762;2023-01-10T08:23:33;187.40;;;65.20;;
73869;SDS011;64924;42.140;24.762;2023-01-10T08:25:59;200.30;;;67.07;;
73869;SDS011;64924;42.140;24.762;2023-01-10T08:28:25;182.90;;;61.97;;
73869;SDS011;64924;42.140;24.762;2023-01-10T08:30:51;193.02;;;67.07;;
73869;SDS011;64924;42.140;24.762;2023-01-10T08:33:23;193.27;;;66.43;;
73869;SDS011;64924;42.140;24.762;2023-01-10T08:35:49;205.07;;;68.10;;
73869;SDS011;64924;42.140;24.762;2023-01-10T08:38:15;194.45;;;72.85;;
73869;SDS011;64924;42.140;24.762;2023-01-10T08:40:40;204.07;;;73.47;;
73869;SDS011;64924;42.140;24.762;2023-01-10T08:43:07;185.07;;;68.70;;
73869;SDS011;64924;42.140;24.762;2023-01-10T08:45:35;172.73;;;63.42;;
73869;SDS011;64924;42.140;24.762;2023-01-10T08:48:01;170.57;;;61.72;;
73869;SDS011;64924;42.140;24.762;2023-01-10T08:50:28;172.40;;;64.22;;
73869;SDS011;64924;42.140;24.762;2023-01-10T08:52:56;165.65;;;60.75;;
73869;SDS011;64924;42.140;24.762;2023-01-10T08:55:22;162.63;;;62.75;;
73869;SDS011;64924;42.140;24.762;2023-01-10T08:57:48;134.50;;;55.10;;
73869;SDS011;64924;42.140;24.762;2023-01-10T09:00:13;139.48;;;56.75;;
73869;SDS011;64924;42.140;24.762;2023-01-10T09:02:39;129.35;;;50.83;;
73869;SDS011;64924;42.140;24.762;2023-01-10T09:05:05;128.15;;;49.33;;
73869;SDS011;64924;42.140;24.762;2023-01-10T09:07:30;132.93;;;48.15;;
73869;SDS011;64924;42.140;24.762;2023-01-10T09:09:56;127.18;;;49.10;;
73869;SDS011;64924;42.140;24.762;2023-01-10T09:12:21;115.90;;;45.53;;
73869;SDS011;64924;42.140;24.762;2023-01-10T09:15:06;119.45;;;46.03;;
73869;SDS011;64924;42.140;24.762;2023-01-10T09:17:32;114.95;;;43.97;;
73869;SDS011;64924;42.140;24.762;2023-01-10T09:19:57;113.78;;;46.38;;
73869;SDS011;64924;42.140;24.762;2023-01-10T09:22:23;120.57;;;47.40;;
73869;SDS011;64924;42.140;24.762;2023-01-10T09:24:48;100.05;;;44.90;;
73869;SDS011;64924;42.140;24.762;2023-01-10T09:27:14;92.72;;;42.70;;
73869;SDS011;64924;42.140;24.762;2023-01-10T09:29:39;99.20;;;41.67;;
73869;SDS011;64924;42.140;24.762;2023-01-10T09:32:05;101.65;;;44.13;;
73869;SDS011;64924;42.140;24.762;2023-01-10T09:34:31;108.07;;;43.78;;
73869;SDS011;64924;42.140;24.762;2023-01-10T09:36:57;96.38;;;43.00;;
73869;SDS011;64924;42.140;24.762;2023-01-10T09:39:22;89.68;;;42.80;;
73869;SDS011;64924;42.140;24.762;2023-01-10T09:41:50;96.45;;;42.45;;
73869;SDS011;64924;42.140;24.762;2023-01-10T09:44:44;101.47;;;43.38;;
73869;SDS011;64924;42.140;24.762;2023-01-10T09:47:14;103.38;;;43.47;;
73869;SDS011;64924;42.140;24.762;2023-01-10T09:52:24;101.55;;;42.15;;
73869;SDS011;64924;42.140;24.762;2023-01-10T09:54:57;97.45;;;42.53;;
73869;SDS011;64924;42.140;24.762;2023-01-10T09:57:28;99.20;;;41.47;;
73869;SDS011;64924;42.140;24.762;2023-01-10T09:59:53;97.28;;;41.00;;
73869;SDS011;64924;42.140;24.762;2023-01-10T10:02:25;98.78;;;42.38;;
73869;SDS011;64924;42.140;24.762;2023-01-10T10:07:30;94.43;;;41.08;;
73869;SDS011;64924;42.140;24.762;2023-01-10T10:09:56;89.18;;;38.97;;
73869;SDS011;64924;42.140;24.762;2023-01-10T10:35:10;93.10;;;42.55;;
73869;SDS011;64924;42.140;24.762;2023-01-10T10:37:40;104.55;;;43.97;;
73869;SDS011;64924;42.140;24.762;2023-01-10T10:42:42;103.78;;;44.33;;
73869;SDS011;64924;42.140;24.762;2023-01-10T10:45:18;97.30;;;40.92;;
73869;SDS011;64924;42.140;24.762;2023-01-10T10:47:44;103.35;;;45.80;;
73869;SDS011;64924;42.140;24.762;2023-01-10T10:50:27;109.53;;;46.13;;
73869;SDS011;64924;42.140;24.762;2023-01-10T10:52:56;111.82;;;46.50;;
73869;SDS011;64924;42.140;24.762;2023-01-10T10:55:32;108.57;;;44.67;;
73869;SDS011;64924;42.140;24.762;2023-01-10T10:58:03;119.60;;;48.58;;
73869;SDS011;64924;42.140;24.762;2023-01-10T11:00:31;109.90;;;46.15;;
73869;SDS011;64924;42.140;24.762;2023-01-10T11:05:28;112.38;;;48.60;;
73869;SDS011;64924;42.140;24.762;2023-01-10T11:08:00;103.82;;;45.20;;
73869;SDS011;64924;42.140;24.762;2023-01-10T11:10:38;113.40;;;48.03;;
73869;SDS011;64924;42.140;24.762;2023-01-10T11:15:41;137.80;;;55.40;;
73869;SDS011;64924;42.140;24.762;2023-01-10T11:18:11;118.43;;;51.38;;
73869;SDS011;64924;42.140;24.762;2023-01-10T11:20:57;131.50;;;51.00;;
73869;SDS011;64924;42.140;24.762;2023-01-10T11:23:39;132.45;;;52.85;;
73869;SDS011;64924;42.140;24.762;2023-01-10T11:32:11;136.65;;;59.60;;
73869;SDS011;64924;42.140;24.762;2023-01-10T11:34:40;124.78;;;57.13;;
73869;SDS011;64924;42.140;24.762;2023-01-10T11:39:40;136.07;;;60.85;;
73869;SDS011;64924;42.140;24.762;2023-01-10T11:45:39;141.27;;;57.70;;
73869;SDS011;64924;42.140;24.762;2023-01-10T11:47:49;135.88;;;60.72;;
73869;SDS011;64924;42.140;24.762;2023-01-10T11:50:25;140.25;;;59.67;;
73869;SDS011;64924;42.140;24.762;2023-01-10T11:52:53;138.10;;;58.30;;
73869;SDS011;64924;42.140;24.762;2023-01-10T11:55:21;119.32;;;52.65;;
73869;SDS011;64924;42.140;24.762;2023-01-10T12:00:30;118.32;;;51.90;;
73869;SDS011;64924;42.140;24.762;2023-01-10T12:03:12;112.25;;;49.00;;
73869;SDS011;64924;42.140;24.762;2023-01-10T12:05:51;103.65;;;48.67;;
73869;SDS011;64924;42.140;24.762;2023-01-10T12:08:29;100.80;;;46.70;;
73869;SDS011;64924;42.140;24.762;2023-01-10T12:10:57;102.47;;;46.78;;
73869;SDS011;64924;42.140;24.762;2023-01-10T12:13:26;101.13;;;48.88;;
73869;SDS011;64924;42.140;24.762;2023-01-10T12:16:13;112.22;;;49.80;;
73869;SDS011;64924;42.140;24.762;2023-01-10T12:18:59;94.40;;;44.65;;
73869;SDS011;64924;42.140;24.762;2023-01-10T12:21:39;104.47;;;45.92;;
73869;SDS011;64924;42.140;24.762;2023-01-10T12:24:11;94.97;;;45.13;;
73869;SDS011;64924;42.140;24.762;2023-01-10T12:26:38;104.05;;;44.95;;
73869;SDS011;64924;42.140;24.762;2023-01-10T12:29:07;91.60;;;44.25;;
73869;SDS011;64924;42.140;24.762;2023-01-10T12:31:39;108.07;;;48.50;;
73869;SDS011;64924;42.140;24.762;2023-01-10T12:34:11;113.63;;;50.83;;
73869;SDS011;64924;42.140;24.762;2023-01-10T12:39:23;76.28;;;35.63;;
73869;SDS011;64924;42.140;24.762;2023-01-10T12:45:37;85.57;;;39.47;;
73869;SDS011;64924;42.140;24.762;2023-01-10T12:48:01;83.57;;;37.90;;
73869;SDS011;64924;42.140;24.762;2023-01-10T12:50:34;88.57;;;39.08;;
73869;SDS011;64924;42.140;24.762;2023-01-10T12:53:22;83.20;;;37.80;;
73869;SDS011;64924;42.140;24.762;2023-01-10T12:55:55;81.20;;;37.78;;
73869;SDS011;64924;42.140;24.762;2023-01-10T12:58:37;77.45;;;37.45;;
73869;SDS011;64924;42.140;24.762;2023-01-10T13:01:03;86.25;;;38.25;;
73869;SDS011;64924;42.140;24.762;2023-01-10T13:03:30;81.57;;;37.08;;
73869;SDS011;64924;42.140;24.762;2023-01-10T13:05:58;84.70;;;39.97;;
73869;SDS011;64924;42.140;24.762;2023-01-10T13:08:25;84.90;;;38.05;;
73869;SDS011;64924;42.140;24.762;2023-01-10T13:10:54;80.03;;;36.88;;
73869;SDS011;64924;42.140;24.762;2023-01-10T13:13:32;82.80;;;39.78;;
73869;SDS011;64924;42.140;24.762;2023-01-10T13:16:14;82.28;;;37.85;;
73869;SDS011;64924;42.140;24.762;2023-01-10T13:21:23;75.35;;;39.47;;
73869;SDS011;64924;42.140;24.762;2023-01-10T13:23:50;70.72;;;35.33;;
73869;SDS011;64924;42.140;24.762;2023-01-10T13:26:17;71.05;;;37.35;;
73869;SDS011;64924;42.140;24.762;2023-01-10T13:28:59;75.18;;;37.20;;
73869;SDS011;64924;42.140;24.762;2023-01-10T13:34:00;75.60;;;39.22;;
73869;SDS011;64924;42.140;24.762;2023-01-10T13:36:36;73.90;;;39.83;;
73869;SDS011;64924;42.140;24.762;2023-01-10T13:39:05;68.93;;;35.88;;
73869;SDS011;64924;42.140;24.762;2023-01-10T13:52:47;65.00;;;34.80;;
73869;SDS011;64924;42.140;24.762;2023-01-10T13:55:24;64.45;;;33.33;;
73869;SDS011;64924;42.140;24.762;2023-01-10T13:57:56;66.35;;;33.35;;
73869;SDS011;64924;42.140;24.762;2023-01-10T14:00:24;62.40;;;32.83;;
73869;SDS011;64924;42.140;24.762;2023-01-10T14:03:58;63.95;;;35.22;;
73869;SDS011;64924;42.140;24.762;2023-01-10T14:09:00;62.03;;;33.88;;
73869;SDS011;64924;42.140;24.762;2023-01-10T14:11:29;60.42;;;32.03;;
73869;SDS011;64924;42.140;24.762;2023-01-10T14:14:22;68.47;;;37.05;;
73869;SDS011;64924;42.140;24.762;2023-01-10T14:16:48;72.88;;;38.42;;
73869;SDS011;64924;42.140;24.762;2023-01-10T14:21:50;71.40;;;38.80;;
73869;SDS011;64924;42.140;24.762;2023-01-10T14:24:29;72.57;;;38.25;;
73869;SDS011;64924;42.140;24.762;2023-01-10T14:27:03;72.32;;;39.70;;
73869;SDS011;64924;42.140;24.762;2023-01-10T14:29:32;81.13;;;38.75;;
73869;SDS011;64924;42.140;24.762;2023-01-10T14:31:58;73.07;;;38.42;;
73869;SDS011;64924;42.140;24.762;2023-01-10T14:36:56;68.63;;;35.25;;
73869;SDS011;64924;42.140;24.762;2023-01-10T14:39:25;68.03;;;37.15;;
73869;SDS011;64924;42.140;24.762;2023-01-10T14:41:53;67.35;;;35.63;;
73869;SDS011;64924;42.140;24.762;2023-01-10T14:44:29;70.18;;;36.08;;
73869;SDS011;64924;42.140;24.762;2023-01-10T14:49:57;73.53;;;36.35;;
73869;SDS011;64924;42.140;24.762;2023-01-10T14:52:27;60.75;;;34.03;;
73869;SDS011;64924;42.140;24.762;2023-01-10T14:57:33;63.20;;;35.17;;
73869;SDS011;64924;42.140;24.762;2023-01-10T15:00:04;62.55;;;33.60;;
73869;SDS011;64924;42.140;24.762;2023-01-10T15:02:41;54.88;;;32.80;;
73869;SDS011;64924;42.140;24.762;2023-01-10T15:07:44;58.78;;;31.75;;
73869;SDS011;64924;42.140;24.762;2023-01-10T15:10:21;62.05;;;35.55;;
73869;SDS011;64924;42.140;24.762;2023-01-10T15:12:56;62.28;;;33.70;;
73869;SDS011;64924;42.140;24.762;2023-01-10T15:15:30;68.07;;;38.13;;
73869;SDS011;64924;42.140;24.762;2023-01-10T15:17:58;73.47;;;39.20;;
73869;SDS011;64924;42.140;24.762;2023-01-10T15:20:25;73.15;;;40.47;;
73869;SDS011;64924;42.140;24.762;2023-01-10T15:22:56;73.20;;;38.17;;
73869;SDS011;64924;42.140;24.762;2023-01-10T15:28:03;69.28;;;38.25;;
73869;SDS011;64924;42.140;24.762;2023-01-10T15:30:36;67.18;;;36.67;;
73869;SDS011;64924;42.140;24.762;2023-01-10T15:33:07;66.63;;;37.40;;
73869;SDS011;64924;42.140;24.762;2023-01-10T15:35:36;62.50;;;34.33;;
73869;SDS011;64924;42.140;24.762;2023-01-10T15:41:02;58.95;;;31.85;;
73869;SDS011;64924;42.140;24.762;2023-01-10T15:43:30;57.20;;;31.20;;
73869;SDS011;64924;42.140;24.762;2023-01-10T15:46:01;57.28;;;31.42;;
73869;SDS011;64924;42.140;24.762;2023-01-10T15:51:14;59.20;;;34.35;;
73869;SDS011;64924;42.140;24.762;2023-01-10T15:56:34;54.17;;;31.55;;
73869;SDS011;64924;42.140;24.762;2023-01-10T15:59:01;58.95;;;32.05;;
73869;SDS011;64924;42.140;24.762;2023-01-10T16:01:29;52.67;;;31.08;;
73869;SDS011;64924;42.140;24.762;2023-01-10T16:04:03;58.33;;;31.35;;
73869;SDS011;64924;42.140;24.762;2023-01-10T16:06:37;57.42;;;31.35;;
73869;SDS011;64924;42.140;24.762;2023-01-10T16:09:07;57.80;;;32.78;;
73869;SDS011;64924;42.140;24.762;2023-01-10T16:11:48;55.63;;;31.67;;
73869;SDS011;64924;42.140;24.762;2023-01-10T16:14:34;60.03;;;35.03;;
73869;SDS011;64924;42.140;24.762;2023-01-10T16:17:00;62.65;;;35.70;;
73869;SDS011;64924;42.140;24.762;2023-01-10T16:19:26;61.78;;;35.28;;
73869;SDS011;64924;42.140;24.762;2023-01-10T16:21:53;72.50;;;42.17;;
73869;SDS011;64924;42.140;24.762;2023-01-10T16:24:27;80.90;;;42.90;;
73869;SDS011;64924;42.140;24.762;2023-01-10T16:26:54;77.00;;;43.83;;
73869;SDS011;64924;42.140;24.762;2023-01-10T16:29:21;83.50;;;47.90;;
73869;SDS011;64924;42.140;24.762;2023-01-10T16:31:49;78.93;;;47.42;;
73869;SDS011;64924;42.140;24.762;2023-01-10T16:34:16;69.90;;;40.60;;
73869;SDS011;64924;42.140;24.762;2023-01-10T16:36:42;74.68;;;41.70;;
73869;SDS011;64924;42.140;24.762;2023-01-10T16:39:15;53.22;;;32.00;;
73869;SDS011;64924;42.140;24.762;2023-01-10T16:41:43;45.35;;;28.65;;
73869;SDS011;64924;42.140;24.762;2023-01-10T16:44:28;41.65;;;24.88;;
73869;SDS011;64924;42.140;24.762;2023-01-10T16:46:54;36.80;;;23.20;;